createdAt,value
2022-08-29T00:00:17.933Z,19.62
2022-08-29T00:02:48.331Z,19.65
2022-08-29T00:05:16.450Z,19.54
2022-08-29T00:07:44.276Z,19.24
2022-08-29T00:10:12.465Z,19.13
2022-08-29T00:12:41.959Z,18.74
2022-08-29T00:15:12.276Z,18.97
2022-08-29T00:17:40.244Z,18.97
2022-08-29T00:20:11.817Z,18.78
2022-08-29T00:22:39.869Z,19.01
2022-08-29T00:25:09.460Z,18.10
2022-08-29T00:27:37.433Z,18.68
2022-08-29T00:30:11.214Z,18.90
2022-08-29T00:32:39.409Z,18.22
2022-08-29T00:35:10.179Z,18.27
2022-08-29T00:37:38.237Z,18.73
2022-08-29T00:40:14.090Z,18.44
2022-08-29T00:42:44.797Z,18.54
2022-08-29T00:45:17.752Z,18.57
2022-08-29T00:47:50.334Z,18.82
2022-08-29T00:50:26.647Z,18.92
2022-08-29T00:52:57.342Z,18.99
2022-08-29T00:55:28.892Z,18.81
2022-08-29T00:57:59.877Z,18.63
2022-08-29T01:00:29.567Z,18.76
2022-08-29T01:02:57.732Z,18.67
2022-08-29T01:05:27.222Z,18.72
2022-08-29T01:07:55.685Z,18.84
2022-08-29T01:10:49.640Z,18.92
2022-08-29T01:13:17.762Z,18.97
2022-08-29T01:15:47.985Z,18.71
2022-08-29T01:18:17.997Z,18.66
2022-08-29T01:20:54.560Z,18.76
2022-08-29T01:23:28.737Z,18.61
2022-08-29T01:25:59.468Z,18.68
2022-08-29T01:28:31.726Z,18.80
2022-08-29T01:31:02.813Z,18.80
2022-08-29T01:33:40.009Z,18.60
2022-08-29T01:36:10.613Z,18.30
2022-08-29T01:38:38.678Z,18.11
2022-08-29T01:41:09.294Z,18.42
2022-08-29T01:43:41.256Z,18.19
2022-08-29T01:46:10.427Z,18.09
2022-08-29T01:48:40.102Z,18.27
2022-08-29T01:51:11.585Z,18.46
2022-08-29T01:53:40.027Z,18.58
2022-08-29T01:56:14.596Z,18.63
2022-08-29T01:58:43.275Z,18.49
2022-08-29T02:01:12.137Z,18.42
2022-08-29T02:03:40.238Z,18.44
2022-08-29T02:06:10.018Z,18.53
2022-08-29T02:08:38.880Z,18.59
2022-08-29T02:11:10.274Z,18.65
2022-08-29T02:13:45.931Z,18.57
2022-08-29T02:16:14.374Z,17.98
2022-08-29T02:18:43.134Z,17.77
2022-08-29T02:21:12.862Z,17.88
2022-08-29T02:23:41.473Z,18.16
2022-08-29T02:26:09.687Z,18.29
2022-08-29T02:28:38.687Z,18.18
2022-08-29T02:31:09.048Z,17.82
2022-08-29T02:33:38.144Z,17.73
2022-08-29T02:36:07.152Z,18.01
2022-08-29T02:38:36.093Z,18.17
2022-08-29T02:41:04.456Z,18.23
2022-08-29T02:43:32.488Z,18.20
2022-08-29T02:46:01.076Z,18.11
2022-08-29T02:48:30.346Z,18.05
2022-08-29T02:50:59.807Z,18.15
2022-08-29T02:53:31.813Z,18.24
2022-08-29T02:55:59.741Z,18.23
2022-08-29T02:58:27.752Z,17.69
2022-08-29T03:00:56.668Z,17.01
2022-08-29T03:03:24.737Z,17.28
2022-08-29T03:05:54.941Z,17.66
2022-08-29T03:08:22.871Z,17.86
2022-08-29T03:10:53.376Z,17.94
2022-08-29T03:13:21.434Z,17.86
2022-08-29T03:15:49.367Z,17.79
2022-08-29T03:18:17.306Z,17.80
2022-08-29T03:20:48.132Z,17.82
2022-08-29T03:23:20.023Z,17.91
2022-08-29T03:25:48.031Z,17.95
2022-08-29T03:28:15.980Z,18.00
2022-08-29T03:30:44.216Z,17.98
2022-08-29T03:33:12.497Z,18.02
2022-08-29T03:35:40.498Z,18.00
2022-08-29T03:38:08.410Z,17.99
2022-08-29T03:40:37.881Z,17.92
2022-08-29T03:43:05.848Z,17.90
2022-08-29T03:45:34.037Z,17.94
2022-08-29T03:48:01.941Z,17.95
2022-08-29T03:50:29.849Z,17.95
2022-08-29T03:52:57.722Z,17.98
2022-08-29T03:55:26.023Z,17.96
2022-08-29T03:57:57.129Z,17.88
2022-08-29T04:00:25.621Z,17.85
2022-08-29T04:02:55.892Z,17.79
2022-08-29T04:05:23.860Z,17.46
2022-08-29T04:07:53.338Z,17.30
2022-08-29T04:10:25.134Z,17.40
2022-08-29T04:12:54.881Z,17.24
2022-08-29T04:15:25.211Z,17.38
2022-08-29T04:17:55.259Z,17.52
2022-08-29T04:20:25.835Z,17.62
2022-08-29T04:22:55.456Z,17.65
2022-08-29T04:25:27.057Z,17.38
2022-08-29T04:27:57.476Z,17.34
2022-08-29T04:30:28.119Z,17.48
2022-08-29T04:32:56.344Z,17.39
2022-08-29T04:35:24.417Z,17.19
2022-08-29T04:37:52.460Z,17.35
2022-08-29T04:40:22.851Z,17.44
2022-08-29T04:42:51.227Z,17.49
2022-08-29T04:45:24.007Z,17.46
2022-08-29T04:47:55.661Z,17.15
2022-08-29T04:50:25.042Z,17.27
2022-08-29T04:52:56.444Z,17.15
2022-08-29T04:55:25.653Z,17.21
2022-08-29T04:57:56.337Z,17.15
2022-08-29T05:00:28.712Z,17.09
2022-08-29T05:02:59.745Z,16.93
2022-08-29T05:05:28.500Z,16.76
2022-08-29T05:07:56.490Z,16.98
2022-08-29T05:10:26.314Z,17.26
2022-08-29T05:12:54.320Z,17.40
2022-08-29T05:15:22.286Z,17.38
2022-08-29T05:17:50.257Z,17.06
2022-08-29T05:20:19.653Z,17.23
2022-08-29T05:22:47.792Z,17.50
2022-08-29T05:25:18.486Z,17.59
2022-08-29T05:27:47.133Z,17.55
2022-08-29T05:30:16.508Z,17.71
2022-08-29T05:33:06.354Z,17.83
2022-08-29T05:35:36.696Z,17.94
2022-08-29T05:38:09.033Z,18.01
2022-08-29T05:40:38.462Z,18.08
2022-08-29T05:43:06.807Z,18.20
2022-08-29T05:45:35.078Z,18.31
2022-08-29T05:48:05.304Z,18.36
2022-08-29T05:50:39.727Z,18.37
2022-08-29T05:53:11.590Z,18.50
2022-08-29T05:55:42.432Z,18.62
2022-08-29T05:58:15.253Z,18.69
2022-08-29T06:00:46.191Z,18.77
2022-08-29T06:03:14.898Z,18.86
2022-08-29T06:05:44.729Z,18.95
2022-08-29T06:08:13.021Z,19.01
2022-08-29T06:10:43.485Z,19.09
2022-08-29T06:13:11.865Z,18.76
2022-08-29T06:15:44.960Z,18.31
2022-08-29T06:18:13.579Z,18.65
2022-08-29T06:20:42.344Z,18.32
2022-08-29T06:23:11.610Z,18.74
2022-08-29T06:25:40.327Z,19.03
2022-08-29T06:28:09.351Z,19.11
2022-08-29T06:30:37.418Z,19.10
2022-08-29T06:33:05.372Z,18.59
2022-08-29T06:35:33.458Z,18.63
2022-08-29T06:38:01.439Z,19.02
2022-08-29T06:40:30.887Z,19.33
2022-08-29T06:42:58.900Z,19.55
2022-08-29T06:45:26.893Z,19.62
2022-08-29T06:47:56.813Z,19.68
2022-08-29T06:50:24.797Z,19.59
2022-08-29T06:52:52.820Z,19.57
2022-08-29T06:55:24.181Z,20.02
2022-08-29T06:57:53.623Z,19.88
2022-08-29T07:00:22.957Z,19.34
2022-08-29T07:02:51.370Z,19.04
2022-08-29T07:05:21.507Z,19.57
2022-08-29T07:07:49.684Z,19.36
2022-08-29T07:10:22.248Z,18.89
2022-08-29T07:12:51.489Z,19.27
2022-08-29T07:15:21.686Z,20.02
2022-08-29T07:17:50.782Z,20.15
2022-08-29T07:20:21.192Z,20.09
2022-08-29T07:22:51.470Z,20.18
2022-08-29T07:25:21.978Z,20.80
2022-08-29T07:27:52.240Z,21.14
2022-08-29T07:30:23.364Z,20.62
2022-08-29T07:32:51.597Z,20.69
2022-08-29T07:35:30.016Z,21.24
2022-08-29T07:37:58.992Z,21.37
2022-08-29T07:40:26.945Z,22.13
2022-08-29T07:42:54.984Z,22.37
2022-08-29T07:45:24.361Z,22.21
2022-08-29T07:47:52.958Z,22.29
2022-08-29T07:50:23.427Z,22.59
2022-08-29T07:52:52.544Z,22.45
2022-08-29T07:55:23.003Z,22.68
2022-08-29T07:57:52.853Z,22.32
2022-08-29T08:00:21.670Z,22.48
2022-08-29T08:02:51.453Z,22.16
2022-08-29T08:05:19.484Z,22.17
2022-08-29T08:07:49.335Z,23.24
2022-08-29T08:10:24.670Z,23.14
2022-08-29T08:12:52.691Z,23.50
2022-08-29T08:15:21.978Z,23.73
2022-08-29T08:17:51.319Z,22.88
2022-08-29T08:20:19.247Z,24.73
2022-08-29T08:22:47.106Z,25.17
2022-08-29T08:25:15.031Z,23.91
2022-08-29T08:27:43.496Z,25.62
2022-08-29T08:30:12.981Z,25.47
2022-08-29T08:32:45.733Z,25.78
2022-08-29T08:35:16.638Z,26.43
2022-08-29T08:37:45.175Z,26.21
2022-08-29T08:40:21.053Z,26.35
2022-08-29T08:42:50.595Z,26.72
2022-08-29T08:45:20.032Z,26.29
2022-08-29T08:47:52.090Z,26.84
2022-08-29T08:50:27.865Z,26.73
2022-08-29T08:53:00.560Z,27.66
2022-08-29T08:55:41.090Z,27.97
2022-08-29T08:58:16.746Z,28.48
2022-08-29T09:00:48.252Z,28.68
2022-08-29T09:03:58.805Z,26.88
2022-08-29T09:06:50.660Z,27.61
2022-08-29T09:09:27.563Z,27.49
2022-08-29T09:12:07.264Z,27.10
2022-08-29T09:14:47.355Z,27.48
2022-08-29T09:17:21.423Z,27.01
2022-08-29T09:19:50.894Z,27.50
2022-08-29T09:22:25.045Z,28.16
2022-08-29T09:24:57.810Z,28.69
2022-08-29T09:27:30.680Z,28.10
2022-08-29T09:30:06.090Z,28.64
2022-08-29T09:32:35.243Z,27.77
2022-08-29T09:35:19.948Z,27.79
2022-08-29T09:37:56.885Z,28.05
2022-08-29T09:40:24.994Z,28.91
2022-08-29T09:43:02.451Z,30.20
2022-08-29T09:45:30.516Z,30.08
2022-08-29T09:48:11.286Z,26.85
2022-08-29T09:50:40.082Z,26.62
2022-08-29T09:53:24.781Z,26.11
2022-08-29T09:55:54.057Z,28.17
2022-08-29T09:58:31.014Z,29.04
2022-08-29T10:01:04.549Z,28.91
2022-08-29T10:03:41.145Z,28.70
2022-08-29T10:06:14.780Z,28.26
2022-08-29T10:08:59.198Z,29.66
2022-08-29T10:11:31.952Z,30.14
2022-08-29T10:14:04.402Z,27.79
2022-08-29T10:16:41.715Z,28.46
2022-08-29T10:19:16.831Z,27.76
2022-08-29T10:21:55.068Z,28.17
2022-08-29T10:24:45.333Z,27.90
2022-08-29T10:27:25.176Z,28.62
2022-08-29T10:30:04.324Z,29.81
2022-08-29T10:32:58.879Z,30.03
2022-08-29T10:35:30.923Z,27.76
2022-08-29T10:38:01.205Z,26.64
2022-08-29T10:40:38.952Z,28.40
2022-08-29T10:43:34.910Z,28.18
2022-08-29T10:46:15.659Z,29.41
2022-08-29T10:48:50.082Z,29.23
2022-08-29T10:51:23.943Z,29.64
2022-08-29T10:53:56.404Z,28.12
2022-08-29T10:56:29.343Z,28.96
2022-08-29T10:59:07.904Z,29.22
2022-08-29T11:01:41.485Z,27.86
2022-08-29T11:04:18.349Z,27.78
2022-08-29T11:06:54.471Z,28.25
2022-08-29T11:09:26.438Z,29.06
2022-08-29T11:12:17.649Z,28.69
2022-08-29T11:14:54.485Z,28.24
2022-08-29T11:17:30.367Z,28.57
2022-08-29T11:20:04.539Z,28.03
2022-08-29T11:22:37.122Z,28.00
2022-08-29T11:25:10.539Z,27.12
2022-08-29T11:27:54.036Z,29.02
2022-08-29T11:30:36.370Z,28.52
2022-08-29T11:33:16.704Z,29.07
2022-08-29T11:36:04.218Z,29.87
2022-08-29T11:39:15.890Z,30.17
2022-08-29T11:41:46.396Z,30.68
2022-08-29T11:44:25.106Z,30.27
2022-08-29T11:46:56.538Z,31.23
2022-08-29T11:49:43.497Z,31.26
2022-08-29T11:52:22.903Z,30.77
2022-08-29T11:55:16.208Z,29.89
2022-08-29T11:58:03.431Z,28.88
2022-08-29T12:00:44.795Z,29.51
2022-08-29T12:03:54.988Z,28.46
2022-08-29T12:06:30.707Z,30.13
2022-08-29T12:09:12.769Z,30.22
2022-08-29T12:12:14.269Z,30.35
2022-08-29T12:14:43.381Z,29.94
2022-08-29T12:18:01.339Z,30.83
2022-08-29T12:20:42.104Z,29.43
2022-08-29T12:23:21.964Z,29.49
2022-08-29T12:26:09.480Z,28.56
2022-08-29T12:28:46.756Z,28.99
2022-08-29T12:31:27.092Z,30.63
2022-08-29T12:34:23.436Z,30.27
2022-08-29T12:37:18.848Z,29.28
2022-08-29T12:40:00.375Z,29.89
2022-08-29T12:42:36.435Z,30.26
2022-08-29T12:45:12.695Z,29.78
2022-08-29T12:47:46.016Z,31.08
2022-08-29T12:50:21.620Z,31.33
2022-08-29T12:53:01.431Z,31.82
2022-08-29T12:55:33.889Z,29.35
2022-08-29T12:58:01.990Z,29.79
2022-08-29T13:00:33.125Z,30.20
2022-08-29T13:03:04.848Z,30.75
2022-08-29T13:05:40.520Z,31.42
2022-08-29T13:08:13.176Z,31.83
2022-08-29T13:10:54.091Z,32.59
2022-08-29T13:13:24.164Z,31.35
2022-08-29T13:15:52.918Z,29.70
2022-08-29T13:18:22.108Z,29.37
2022-08-29T13:21:05.066Z,30.10
2022-08-29T13:23:45.890Z,29.85
2022-08-29T13:26:23.653Z,29.12
2022-08-29T13:28:54.364Z,29.05
2022-08-29T13:31:26.411Z,28.99
2022-08-29T13:34:20.946Z,29.63
2022-08-29T13:36:59.972Z,28.93
2022-08-29T13:39:31.408Z,29.09
2022-08-29T13:42:20.238Z,28.77
2022-08-29T13:45:15.443Z,28.31
2022-08-29T13:48:02.930Z,28.43
2022-08-29T13:50:31.922Z,28.93
2022-08-29T13:53:01.396Z,28.51
2022-08-29T13:55:29.830Z,28.75
2022-08-29T13:57:58.418Z,29.50
2022-08-29T14:00:34.989Z,29.76
2022-08-29T14:03:06.512Z,29.96
2022-08-29T14:05:36.280Z,30.02
2022-08-29T14:08:07.696Z,29.56
2022-08-29T14:10:38.537Z,28.77
2022-08-29T14:13:07.365Z,29.56
2022-08-29T14:15:35.477Z,28.50
2022-08-29T14:18:04.874Z,28.65
2022-08-29T14:20:33.010Z,28.84
2022-08-29T14:23:01.038Z,29.20
2022-08-29T14:25:30.747Z,28.85
2022-08-29T14:27:58.657Z,29.20
2022-08-29T14:30:27.369Z,29.75
2022-08-29T14:32:55.440Z,29.19
2022-08-29T14:35:26.611Z,29.30
2022-08-29T14:37:55.852Z,29.19
2022-08-29T14:40:25.684Z,29.82
2022-08-29T14:42:55.552Z,29.74
2022-08-29T14:45:23.467Z,30.15
2022-08-29T14:47:51.503Z,29.65
2022-08-29T14:50:22.179Z,28.63
2022-08-29T14:52:50.665Z,28.60
2022-08-29T14:55:19.446Z,28.37
2022-08-29T14:57:47.713Z,28.82
2022-08-29T15:00:20.676Z,29.13
2022-08-29T15:02:49.760Z,29.00
2022-08-29T15:05:18.323Z,28.49
2022-08-29T15:07:48.543Z,28.23
2022-08-29T15:10:18.932Z,28.07
2022-08-29T15:12:47.417Z,28.09
2022-08-29T15:15:15.334Z,28.09
2022-08-29T15:17:44.787Z,28.29
2022-08-29T15:20:35.642Z,28.92
2022-08-29T15:23:03.292Z,29.22
2022-08-29T15:25:31.409Z,28.60
2022-08-29T15:27:59.465Z,28.82
2022-08-29T15:30:30.133Z,28.51
2022-08-29T15:32:59.483Z,28.51
2022-08-29T15:35:27.936Z,27.88
2022-08-29T15:37:55.954Z,28.65
2022-08-29T15:40:24.819Z,29.07
2022-08-29T15:42:53.263Z,28.45
2022-08-29T15:45:22.737Z,28.16
2022-08-29T15:47:53.867Z,27.84
2022-08-29T15:50:24.365Z,27.55
2022-08-29T15:52:53.073Z,27.76
2022-08-29T15:55:21.698Z,27.56
2022-08-29T15:57:52.536Z,27.74
2022-08-29T16:00:30.180Z,27.47
2022-08-29T16:03:00.326Z,27.96
2022-08-29T16:05:29.907Z,27.42
2022-08-29T16:07:58.216Z,27.84
2022-08-29T16:10:26.302Z,28.38
2022-08-29T16:12:54.430Z,28.03
2022-08-29T16:15:22.589Z,27.74
2022-08-29T16:17:51.388Z,27.74
2022-08-29T16:20:19.492Z,27.90
2022-08-29T16:22:49.059Z,27.91
2022-08-29T16:25:19.333Z,28.01
2022-08-29T16:27:47.411Z,27.80
2022-08-29T16:30:16.412Z,28.30
2022-08-29T16:32:44.970Z,28.79
2022-08-29T16:35:14.320Z,27.93
2022-08-29T16:37:42.298Z,28.11
2022-08-29T16:40:14.154Z,27.67
2022-08-29T16:42:43.295Z,28.03
2022-08-29T16:45:24.596Z,27.73
2022-08-29T16:47:57.242Z,27.24
2022-08-29T16:50:25.933Z,27.21
2022-08-29T16:52:54.624Z,27.23
2022-08-29T16:55:24.339Z,27.34
2022-08-29T16:58:06.429Z,26.96
2022-08-29T17:00:35.430Z,26.93
2022-08-29T17:03:06.028Z,26.70
2022-08-29T17:05:33.964Z,26.85
2022-08-29T17:08:01.167Z,26.71
2022-08-29T17:10:29.477Z,26.61
2022-08-29T17:12:56.327Z,26.65
2022-08-29T17:15:23.336Z,26.83
2022-08-29T17:17:51.410Z,26.65
2022-08-29T17:20:20.405Z,26.52
2022-08-29T17:22:48.432Z,26.49
2022-08-29T17:25:17.603Z,26.59
2022-08-29T17:28:14.192Z,26.64
2022-08-29T17:30:36.106Z,26.38
2022-08-29T17:33:04.330Z,26.13
2022-08-29T17:35:32.382Z,26.15
2022-08-29T17:38:00.568Z,26.46
2022-08-29T17:40:29.211Z,26.22
2022-08-29T17:42:58.976Z,26.17
2022-08-29T17:45:27.983Z,25.89
2022-08-29T17:47:57.034Z,25.88
2022-08-29T17:50:25.264Z,25.84
2022-08-29T17:52:54.125Z,25.87
2022-08-29T17:55:22.159Z,26.01
2022-08-29T17:57:50.264Z,26.12
2022-08-29T18:00:21.626Z,25.79
2022-08-29T18:02:52.412Z,25.59
2022-08-29T18:05:20.511Z,25.52
2022-08-29T18:07:48.415Z,25.30
2022-08-29T18:10:22.199Z,25.26
2022-08-29T18:12:50.765Z,25.30
2022-08-29T18:15:20.055Z,25.38
2022-08-29T18:17:47.887Z,25.14
2022-08-29T18:20:19.481Z,25.33
2022-08-29T18:22:50.668Z,25.26
2022-08-29T18:25:22.709Z,25.12
2022-08-29T18:27:51.314Z,25.10
2022-08-29T18:30:21.464Z,25.20
2022-08-29T18:32:49.660Z,25.12
2022-08-29T18:35:18.022Z,25.43
2022-08-29T18:37:45.957Z,25.41
2022-08-29T18:40:13.967Z,25.13
2022-08-29T18:42:44.319Z,25.21
2022-08-29T18:45:12.997Z,24.90
2022-08-29T18:47:42.386Z,25.28
2022-08-29T18:50:28.293Z,25.40
2022-08-29T18:52:58.519Z,25.38
2022-08-29T18:55:27.329Z,25.19
2022-08-29T18:57:56.091Z,24.81
2022-08-29T19:00:26.469Z,24.85
2022-08-29T19:02:58.051Z,24.93
2022-08-29T19:05:31.214Z,24.94
2022-08-29T19:07:59.980Z,25.09
2022-08-29T19:10:29.596Z,24.97
2022-08-29T19:12:58.709Z,24.83
2022-08-29T19:15:29.111Z,24.90
2022-08-29T19:17:58.403Z,24.70
2022-08-29T19:20:46.058Z,24.39
2022-08-29T19:23:14.434Z,24.45
2022-08-29T19:25:42.390Z,24.42
2022-08-29T19:28:11.896Z,24.48
2022-08-29T19:30:40.295Z,24.33
2022-08-29T19:33:11.089Z,24.37
2022-08-29T19:35:40.180Z,24.33
2022-08-29T19:38:10.598Z,24.36
2022-08-29T19:40:41.727Z,24.17
2022-08-29T19:43:13.725Z,24.17
2022-08-29T19:45:44.366Z,24.14
2022-08-29T19:48:15.185Z,24.08
2022-08-29T19:50:47.764Z,23.59
2022-08-29T19:53:25.966Z,23.71
2022-08-29T19:55:55.018Z,23.50
2022-08-29T19:58:31.027Z,23.69
2022-08-29T20:01:01.461Z,23.77
2022-08-29T20:03:32.380Z,23.81
2022-08-29T20:06:00.493Z,23.84
2022-08-29T20:08:29.182Z,23.83
2022-08-29T20:10:59.428Z,23.72
2022-08-29T20:13:32.889Z,23.41
2022-08-29T20:16:03.794Z,23.41
2022-08-29T20:18:33.254Z,23.43
2022-08-29T20:21:03.542Z,23.46
2022-08-29T20:23:32.224Z,22.91
2022-08-29T20:26:01.599Z,22.68
2022-08-29T20:28:30.989Z,22.79
2022-08-29T20:30:59.758Z,22.84
2022-08-29T20:33:28.820Z,23.05
2022-08-29T20:36:15.941Z,23.11
2022-08-29T20:38:44.196Z,23.05
2022-08-29T20:41:12.157Z,23.16
2022-08-29T20:43:40.004Z,23.13
2022-08-29T20:46:08.826Z,23.07
2022-08-29T20:48:37.233Z,22.99
2022-08-29T20:51:08.526Z,22.95
2022-08-29T20:53:38.316Z,22.98
2022-08-29T20:56:06.601Z,22.78
2022-08-29T20:58:35.608Z,22.58
2022-08-29T21:01:03.818Z,22.24
2022-08-29T21:03:49.335Z,22.42
2022-08-29T21:06:20.370Z,22.57
2022-08-29T21:08:48.812Z,22.37
2022-08-29T21:11:16.812Z,22.58
2022-08-29T21:13:44.838Z,22.64
2022-08-29T21:16:12.927Z,22.47
2022-08-29T21:18:41.445Z,22.57
2022-08-29T21:21:13.382Z,22.78
2022-08-29T21:23:42.669Z,22.90
2022-08-29T21:26:11.307Z,22.98
2022-08-29T21:28:39.541Z,23.03
2022-08-29T21:31:09.200Z,23.06
2022-08-29T21:33:38.209Z,23.10
2022-08-29T21:36:10.392Z,23.05
2022-08-29T21:38:38.519Z,22.95
2022-08-29T21:41:11.943Z,22.87
2022-08-29T21:43:40.000Z,22.72
2022-08-29T21:46:15.217Z,22.82
2022-08-29T21:48:43.226Z,22.76
2022-08-29T21:51:12.930Z,22.85
2022-08-29T21:53:43.069Z,22.86
2022-08-29T21:56:12.377Z,22.82
2022-08-29T21:58:40.452Z,22.79
2022-08-29T22:01:10.026Z,22.64
2022-08-29T22:03:38.013Z,22.52
2022-08-29T22:06:07.050Z,22.57
2022-08-29T22:08:35.256Z,22.49
2022-08-29T22:11:13.589Z,22.37
2022-08-29T22:13:41.501Z,22.11
2022-08-29T22:16:27.361Z,22.27
2022-08-29T22:18:55.587Z,22.23
2022-08-29T22:21:24.633Z,22.31
2022-08-29T22:23:52.958Z,22.26
2022-08-29T22:26:22.474Z,22.22
2022-08-29T22:28:50.387Z,22.23
2022-08-29T22:31:19.113Z,22.12
2022-08-29T22:33:47.897Z,21.72
2022-08-29T22:36:16.554Z,21.12
2022-08-29T22:38:49.646Z,21.04
2022-08-29T22:41:28.537Z,21.37
2022-08-29T22:44:35.773Z,21.74
2022-08-29T22:46:46.368Z,21.86
2022-08-29T22:49:14.398Z,21.91
2022-08-29T22:51:42.287Z,21.68
2022-08-29T22:54:27.872Z,21.71
2022-08-29T22:56:59.441Z,20.88
2022-08-29T22:59:27.383Z,21.21
2022-08-29T23:01:55.578Z,21.47
2022-08-29T23:04:25.843Z,21.49
2022-08-29T23:06:53.932Z,21.36
2022-08-29T23:09:22.094Z,21.47
2022-08-29T23:11:50.360Z,21.22
2022-08-29T23:14:21.202Z,21.18
2022-08-29T23:16:49.713Z,21.21
2022-08-29T23:19:17.814Z,21.35
2022-08-29T23:21:45.855Z,20.98
2022-08-29T23:24:16.601Z,21.09
2022-08-29T23:26:44.495Z,20.92
2022-08-29T23:29:14.442Z,21.11
2022-08-29T23:31:43.840Z,21.02
2022-08-29T23:34:11.817Z,20.78
2022-08-29T23:36:42.524Z,20.85
2022-08-29T23:39:10.665Z,21.06
2022-08-29T23:41:38.565Z,20.31
2022-08-29T23:44:06.850Z,20.64
2022-08-29T23:46:36.624Z,20.75
2022-08-29T23:49:06.847Z,20.82
2022-08-29T23:51:35.146Z,20.58
2022-08-29T23:54:03.040Z,20.61
2022-08-29T23:56:32.081Z,19.96
2022-08-29T23:59:00.705Z,20.45
